createdAt,value
2023-03-21T00:00:33.584Z,6.23
2023-03-21T00:03:00.153Z,6.35
2023-03-21T00:05:26.809Z,7.13
2023-03-21T00:07:54.052Z,7.38
2023-03-21T00:10:33.128Z,7.20
2023-03-21T00:13:05.837Z,7.43
2023-03-21T00:15:46.188Z,7.43
2023-03-21T00:18:20.969Z,7.35
2023-03-21T00:21:22.066Z,6.47
2023-03-21T00:23:46.489Z,6.65
2023-03-21T00:26:14.711Z,7.93
2023-03-21T00:28:42.871Z,7.00
2023-03-21T00:31:10.202Z,7.97
2023-03-21T00:33:38.866Z,7.15
2023-03-21T00:36:06.976Z,7.00
2023-03-21T00:38:34.635Z,6.60
2023-03-21T00:41:18.922Z,6.70
2023-03-21T00:43:47.618Z,5.95
2023-03-21T00:46:14.058Z,6.15
2023-03-21T00:48:40.450Z,7.25
2023-03-21T00:51:15.464Z,6.17
2023-03-21T00:53:42.282Z,6.15
2023-03-21T00:56:09.053Z,5.72
2023-03-21T00:58:35.669Z,6.07
2023-03-21T01:01:02.613Z,5.72
2023-03-21T01:03:29.141Z,5.70
2023-03-21T01:06:07.763Z,5.82
2023-03-21T01:08:53.584Z,6.00
2023-03-21T01:11:26.557Z,6.35
2023-03-21T01:13:59.848Z,5.70
2023-03-21T01:16:31.055Z,5.70
2023-03-21T01:18:57.584Z,6.50
2023-03-21T01:21:24.238Z,6.65
2023-03-21T01:23:50.708Z,6.65
2023-03-21T01:26:17.210Z,7.40
2023-03-21T01:28:44.740Z,8.13
2023-03-21T01:31:13.769Z,8.27
2023-03-21T01:33:40.861Z,8.40
2023-03-21T01:36:13.169Z,9.45
2023-03-21T01:38:41.554Z,9.57
2023-03-21T01:41:19.428Z,8.87
2023-03-21T01:43:47.548Z,8.60
2023-03-21T01:46:26.284Z,9.43
2023-03-21T01:48:58.042Z,9.68
2023-03-21T01:51:26.203Z,9.30
2023-03-21T01:53:53.474Z,9.23
2023-03-21T01:56:26.242Z,9.50
2023-03-21T01:58:56.929Z,9.43
2023-03-21T02:01:23.796Z,10.57
2023-03-21T02:03:52.036Z,10.45
2023-03-21T02:06:36.641Z,9.90
2023-03-21T02:09:10.000Z,10.60
2023-03-21T02:11:37.969Z,11.77
2023-03-21T02:14:07.037Z,10.95
2023-03-21T02:16:46.291Z,11.35
2023-03-21T02:19:31.908Z,11.00
2023-03-21T02:22:14.340Z,10.60
2023-03-21T02:24:59.599Z,11.10
2023-03-21T02:27:32.518Z,11.20
2023-03-21T02:30:29.618Z,11.65
2023-03-21T02:33:31.559Z,10.87
2023-03-21T02:36:16.823Z,12.20
2023-03-21T02:39:07.889Z,10.68
2023-03-21T02:41:47.517Z,10.82
2023-03-21T02:44:23.445Z,11.65
2023-03-21T02:47:05.987Z,12.03
2023-03-21T02:49:41.929Z,11.88
2023-03-21T02:52:18.723Z,11.40
2023-03-21T02:54:51.533Z,12.20
2023-03-21T02:57:19.914Z,11.93
2023-03-21T02:59:58.491Z,11.47
2023-03-21T03:02:30.826Z,11.93
2023-03-21T03:04:58.776Z,11.40
2023-03-21T03:07:43.419Z,11.38
2023-03-21T03:10:36.021Z,10.68
2023-03-21T03:13:39.266Z,10.90
2023-03-21T03:16:18.518Z,10.73
2023-03-21T03:18:51.620Z,8.80
2023-03-21T03:21:42.217Z,10.90
2023-03-21T03:24:13.875Z,10.10
2023-03-21T03:27:02.017Z,9.63
2023-03-21T03:29:32.795Z,9.98
2023-03-21T03:32:09.251Z,9.52
2023-03-21T03:34:40.483Z,8.63
2023-03-21T03:37:10.928Z,9.63
2023-03-21T03:39:47.099Z,9.33
2023-03-21T03:42:27.936Z,8.60
2023-03-21T03:44:56.134Z,9.32
2023-03-21T03:47:47.710Z,9.25
2023-03-21T03:50:26.083Z,9.52
2023-03-21T03:53:01.263Z,10.00
2023-03-21T03:55:34.317Z,9.43
2023-03-21T03:58:04.588Z,9.68
2023-03-21T04:00:34.949Z,9.10
2023-03-21T04:03:01.622Z,9.65
2023-03-21T04:05:28.198Z,10.00
2023-03-21T04:07:54.647Z,9.40
2023-03-21T04:10:22.692Z,9.88
2023-03-21T04:12:50.010Z,9.70
2023-03-21T04:15:16.696Z,10.57
2023-03-21T04:17:43.063Z,10.33
2023-03-21T04:20:16.584Z,10.52
2023-03-21T04:22:48.571Z,10.50
2023-03-21T04:25:21.830Z,9.98
2023-03-21T04:27:50.891Z,10.80
2023-03-21T04:30:19.686Z,11.07
2023-03-21T04:32:56.488Z,11.45
2023-03-21T04:35:24.713Z,11.55
2023-03-21T04:37:51.453Z,11.27
2023-03-21T04:40:18.807Z,10.82
2023-03-21T04:42:47.225Z,10.73
2023-03-21T04:45:16.121Z,11.10
2023-03-21T04:47:42.843Z,12.52
2023-03-21T04:50:11.088Z,11.40
2023-03-21T04:52:37.497Z,10.57
2023-03-21T04:55:04.271Z,11.57
2023-03-21T04:57:31.043Z,10.90
2023-03-21T04:59:57.439Z,10.90
2023-03-21T05:02:23.943Z,11.55
2023-03-21T05:04:50.454Z,11.48
2023-03-21T05:07:16.873Z,10.87
2023-03-21T05:09:43.252Z,10.90
2023-03-21T05:12:09.736Z,11.85
2023-03-21T05:14:36.177Z,11.25
2023-03-21T05:17:05.077Z,10.32
2023-03-21T05:19:35.501Z,10.00
2023-03-21T05:22:07.155Z,9.52
2023-03-21T05:24:33.952Z,9.65
2023-03-21T05:27:02.340Z,9.13
2023-03-21T05:29:30.936Z,8.60
2023-03-21T05:31:59.079Z,8.40
2023-03-21T05:34:26.991Z,7.95
2023-03-21T05:36:53.849Z,8.32
2023-03-21T05:39:21.014Z,7.93
2023-03-21T05:41:47.623Z,8.48
2023-03-21T05:44:14.081Z,7.40
2023-03-21T05:46:40.673Z,8.13
2023-03-21T05:49:07.080Z,7.85
2023-03-21T05:51:33.531Z,7.15
2023-03-21T05:53:59.962Z,7.18
2023-03-21T05:56:26.352Z,7.33
2023-03-21T05:58:52.831Z,8.25
2023-03-21T06:01:19.255Z,7.10
2023-03-21T06:03:45.837Z,7.88
2023-03-21T06:06:12.350Z,6.65
2023-03-21T06:08:38.739Z,7.47
2023-03-21T06:11:06.864Z,6.95
2023-03-21T06:13:33.238Z,6.93
2023-03-21T06:15:59.793Z,6.70
2023-03-21T06:18:26.457Z,6.88
2023-03-21T06:20:54.439Z,7.10
2023-03-21T06:23:20.870Z,7.20
2023-03-21T06:25:48.165Z,6.68
2023-03-21T06:28:14.556Z,7.18
2023-03-21T06:30:40.990Z,7.30
2023-03-21T06:33:07.570Z,7.07
2023-03-21T06:35:34.019Z,6.45
2023-03-21T06:38:00.473Z,7.65
2023-03-21T06:40:26.863Z,6.25
2023-03-21T06:42:53.379Z,6.32
2023-03-21T06:45:19.833Z,6.83
2023-03-21T06:47:46.416Z,6.05
2023-03-21T06:50:12.889Z,6.13
2023-03-21T06:52:39.331Z,5.70
2023-03-21T06:55:06.175Z,5.43
2023-03-21T06:57:32.587Z,5.60
2023-03-21T06:59:59.002Z,6.28
2023-03-21T07:02:25.909Z,5.70
2023-03-21T07:04:52.407Z,6.25
2023-03-21T07:07:18.855Z,6.68
2023-03-21T07:09:45.261Z,5.17
2023-03-21T07:12:11.684Z,5.93
2023-03-21T07:14:38.144Z,5.30
2023-03-21T07:17:04.519Z,5.43
2023-03-21T07:19:31.163Z,6.45
2023-03-21T07:21:57.564Z,6.30
2023-03-21T07:24:23.954Z,5.60
2023-03-21T07:26:50.481Z,5.15
2023-03-21T07:29:17.585Z,5.45
2023-03-21T07:31:44.247Z,5.22
2023-03-21T07:34:10.698Z,5.93
2023-03-21T07:36:37.701Z,5.60
2023-03-21T07:39:04.450Z,5.35
2023-03-21T07:41:30.972Z,5.50
2023-03-21T07:43:57.787Z,4.55
2023-03-21T07:46:24.494Z,4.90
2023-03-21T07:48:50.956Z,4.65
2023-03-21T07:51:17.334Z,4.80
2023-03-21T07:53:48.321Z,4.85
2023-03-21T07:56:15.873Z,4.88
2023-03-21T07:58:49.576Z,5.37
2023-03-21T08:01:15.960Z,4.80
2023-03-21T08:03:43.261Z,5.63
2023-03-21T08:06:10.189Z,4.68
2023-03-21T08:08:37.470Z,4.63
2023-03-21T08:11:04.686Z,5.40
2023-03-21T08:13:31.098Z,4.78
2023-03-21T08:15:57.485Z,5.30
2023-03-21T08:18:24.143Z,5.18
2023-03-21T08:20:55.990Z,5.72
2023-03-21T08:23:23.623Z,5.90
2023-03-21T08:25:54.474Z,4.80
2023-03-21T08:28:22.081Z,5.18
2023-03-21T08:30:49.600Z,5.28
2023-03-21T08:33:18.621Z,4.60
2023-03-21T08:35:45.741Z,4.80
2023-03-21T08:38:12.439Z,4.38
2023-03-21T08:40:38.911Z,4.95
2023-03-21T08:43:05.441Z,4.63
2023-03-21T08:45:32.137Z,5.03
2023-03-21T08:47:58.624Z,4.77
2023-03-21T08:50:29.452Z,4.13
2023-03-21T08:52:55.877Z,4.80
2023-03-21T08:55:22.326Z,3.75
2023-03-21T08:57:48.786Z,4.25
2023-03-21T09:00:18.053Z,4.53
2023-03-21T09:02:46.815Z,4.53
2023-03-21T09:05:13.224Z,4.18
2023-03-21T09:07:40.848Z,3.13
2023-03-21T09:10:25.352Z,4.30
2023-03-21T09:12:54.389Z,3.00
2023-03-21T09:15:24.781Z,3.65
2023-03-21T09:17:54.073Z,3.20
2023-03-21T09:20:26.127Z,3.25
2023-03-21T09:22:53.322Z,3.85
2023-03-21T09:25:20.638Z,3.50
2023-03-21T09:27:47.920Z,3.65
2023-03-21T09:30:17.894Z,3.80
2023-03-21T09:32:49.359Z,3.72
2023-03-21T09:35:19.936Z,3.80
2023-03-21T09:37:48.136Z,3.87
2023-03-21T09:40:19.616Z,2.60
2023-03-21T09:42:52.615Z,3.10
2023-03-21T09:45:26.226Z,3.03
2023-03-21T09:47:54.028Z,3.60
2023-03-21T09:50:31.960Z,3.50
2023-03-21T09:53:03.681Z,4.07
2023-03-21T09:55:35.126Z,3.45
2023-03-21T09:58:07.660Z,3.22
2023-03-21T10:00:39.757Z,4.18
2023-03-21T10:03:18.081Z,3.87
2023-03-21T10:05:46.841Z,3.65
2023-03-21T10:08:25.699Z,4.13
2023-03-21T10:10:56.656Z,3.50
2023-03-21T10:13:27.091Z,3.90
2023-03-21T10:16:14.901Z,3.90
2023-03-21T10:18:43.266Z,3.88
2023-03-21T10:21:37.576Z,3.75
2023-03-21T10:24:07.090Z,2.92
2023-03-21T10:26:33.579Z,4.07
2023-03-21T10:29:02.403Z,3.53
2023-03-21T10:31:31.370Z,3.45
2023-03-21T10:34:03.209Z,3.38
2023-03-21T10:36:33.574Z,3.45
2023-03-21T10:39:04.332Z,4.22
2023-03-21T10:41:31.817Z,3.30
2023-03-21T10:44:14.698Z,3.30
2023-03-21T10:46:57.046Z,3.53
2023-03-21T10:49:25.485Z,3.47
2023-03-21T10:51:56.841Z,3.30
2023-03-21T10:54:29.004Z,3.40
2023-03-21T10:57:09.323Z,3.60
2023-03-21T10:59:42.806Z,3.50
2023-03-21T11:02:19.537Z,2.97
2023-03-21T11:04:46.383Z,3.30
2023-03-21T11:07:15.264Z,3.17
2023-03-21T11:09:53.781Z,2.72
2023-03-21T11:12:38.924Z,3.15
2023-03-21T11:15:48.851Z,2.47
2023-03-21T11:18:20.400Z,3.00
2023-03-21T11:20:56.825Z,3.40
2023-03-21T11:23:29.022Z,2.83
2023-03-21T11:25:56.061Z,2.97
2023-03-21T11:28:24.712Z,3.42
2023-03-21T11:30:59.850Z,2.50
2023-03-21T11:33:31.391Z,2.90
2023-03-21T11:36:33.682Z,3.05
2023-03-21T11:39:09.246Z,2.85
2023-03-21T11:41:40.354Z,2.67
2023-03-21T11:44:07.017Z,3.00
2023-03-21T11:46:40.623Z,2.70
2023-03-21T11:49:09.525Z,2.97
2023-03-21T11:51:51.166Z,3.30
2023-03-21T11:54:39.360Z,2.45
2023-03-21T11:57:18.250Z,2.60
2023-03-21T11:59:50.848Z,3.10
2023-03-21T12:03:21.694Z,2.90
2023-03-21T12:05:56.185Z,2.58
2023-03-21T12:08:45.714Z,3.50
2023-03-21T12:11:27.395Z,3.50
2023-03-21T12:14:19.916Z,2.50
2023-03-21T12:17:11.137Z,2.53
2023-03-21T12:20:15.249Z,2.97
2023-03-21T12:22:54.814Z,3.10
2023-03-21T12:25:33.076Z,3.80
2023-03-21T12:28:05.696Z,2.53
2023-03-21T12:30:56.822Z,3.92
2023-03-21T12:33:50.951Z,3.40
2023-03-21T12:36:26.024Z,2.80
2023-03-21T12:39:14.292Z,3.40
2023-03-21T12:41:54.153Z,2.90
2023-03-21T12:44:23.912Z,3.17
2023-03-21T12:46:57.062Z,3.20
2023-03-21T12:49:32.049Z,3.70
2023-03-21T12:52:06.104Z,3.80
2023-03-21T12:54:57.829Z,3.53
2023-03-21T12:57:47.699Z,4.50
2023-03-21T13:00:23.052Z,4.20
2023-03-21T13:02:55.416Z,4.35
2023-03-21T13:05:33.448Z,4.43
2023-03-21T13:08:18.194Z,4.07
2023-03-21T13:10:45.659Z,3.92
2023-03-21T13:13:33.614Z,4.25
2023-03-21T13:16:33.979Z,3.65
2023-03-21T13:19:12.632Z,3.72
2023-03-21T13:22:04.561Z,3.93
2023-03-21T13:24:48.708Z,4.70
2023-03-21T13:27:24.801Z,4.32
2023-03-21T13:30:06.572Z,3.80
2023-03-21T13:32:39.192Z,4.18
2023-03-21T13:35:09.654Z,3.63
2023-03-21T13:37:40.729Z,3.97
2023-03-21T13:40:20.198Z,4.22
2023-03-21T13:42:53.562Z,3.83
2023-03-21T13:45:25.807Z,3.88
2023-03-21T13:47:58.769Z,3.73
2023-03-21T13:50:33.589Z,3.90
2023-03-21T13:53:15.342Z,4.15
2023-03-21T13:55:45.701Z,3.28
2023-03-21T13:58:32.886Z,3.92
2023-03-21T14:01:25.991Z,4.20
2023-03-21T14:04:00.362Z,3.45
2023-03-21T14:06:34.836Z,3.90
2023-03-21T14:09:02.534Z,3.33
2023-03-21T14:11:31.663Z,3.53
2023-03-21T14:14:00.522Z,3.87
2023-03-21T14:16:28.683Z,3.92
2023-03-21T14:18:59.988Z,3.88
2023-03-21T14:21:32.033Z,4.05
2023-03-21T14:24:03.384Z,4.55
2023-03-21T14:26:35.356Z,4.50
2023-03-21T14:29:07.236Z,4.10
2023-03-21T14:31:35.877Z,4.28
2023-03-21T14:34:04.023Z,4.88
2023-03-21T14:36:34.615Z,4.85
2023-03-21T14:39:36.566Z,5.17
2023-03-21T14:42:15.558Z,4.70
2023-03-21T14:44:54.859Z,4.07
2023-03-21T14:47:28.077Z,5.80
2023-03-21T14:49:54.793Z,4.05
2023-03-21T14:52:30.284Z,3.93
2023-03-21T14:54:57.405Z,4.05
2023-03-21T14:57:28.744Z,4.25
2023-03-21T14:59:59.290Z,4.40
2023-03-21T15:02:36.567Z,4.40
2023-03-21T15:05:15.372Z,4.07
2023-03-21T15:07:41.901Z,4.10
2023-03-21T15:10:17.700Z,4.30
2023-03-21T15:12:55.160Z,4.70
2023-03-21T15:15:25.995Z,4.18
2023-03-21T15:17:55.844Z,4.53
2023-03-21T15:20:27.353Z,4.68
2023-03-21T15:23:02.448Z,4.75
2023-03-21T15:25:33.967Z,4.90
2023-03-21T15:28:00.980Z,4.80
2023-03-21T15:30:29.647Z,3.97
2023-03-21T15:32:57.558Z,4.00
2023-03-21T15:35:32.027Z,3.97
2023-03-21T15:37:59.731Z,3.80
2023-03-21T15:40:31.914Z,4.20
2023-03-21T15:43:15.250Z,3.77
2023-03-21T15:45:50.400Z,4.10
2023-03-21T15:48:21.080Z,4.43
2023-03-21T15:50:56.072Z,4.40
2023-03-21T15:53:25.275Z,4.63
2023-03-21T15:55:57.529Z,4.40
2023-03-21T15:58:27.333Z,4.80
2023-03-21T16:00:56.053Z,4.10
2023-03-21T16:03:32.205Z,4.72
2023-03-21T16:06:21.932Z,4.47
2023-03-21T16:08:53.735Z,4.50
2023-03-21T16:11:23.268Z,4.75
2023-03-21T16:13:50.993Z,4.05
2023-03-21T16:16:23.696Z,4.35
2023-03-21T16:18:51.582Z,4.53
2023-03-21T16:21:21.182Z,4.53
2023-03-21T16:23:48.326Z,4.93
2023-03-21T16:26:22.497Z,4.65
2023-03-21T16:28:49.893Z,4.97
2023-03-21T16:31:19.005Z,5.05
2023-03-21T16:33:46.434Z,5.63
2023-03-21T16:36:20.051Z,4.88
2023-03-21T16:38:49.427Z,5.43
2023-03-21T16:41:16.968Z,5.18
2023-03-21T16:43:44.017Z,4.97
2023-03-21T16:46:20.145Z,5.30
2023-03-21T16:48:48.950Z,5.32
2023-03-21T16:51:21.605Z,4.88
2023-03-21T16:53:48.995Z,4.40
2023-03-21T16:56:20.515Z,4.00
2023-03-21T16:58:47.181Z,4.30
2023-03-21T17:01:19.640Z,3.95
2023-03-21T17:03:47.925Z,3.70
2023-03-21T17:06:20.194Z,3.70
2023-03-21T17:08:46.925Z,3.70
2023-03-21T17:11:20.307Z,2.97
2023-03-21T17:13:48.639Z,2.72
2023-03-21T17:16:18.732Z,3.05
2023-03-21T17:18:45.226Z,3.00
2023-03-21T17:21:20.350Z,2.65
2023-03-21T17:23:46.974Z,3.20
2023-03-21T17:26:16.011Z,3.65
2023-03-21T17:28:42.435Z,3.78
2023-03-21T17:31:23.074Z,3.55
2023-03-21T17:33:49.581Z,3.40
2023-03-21T17:36:24.428Z,4.17
2023-03-21T17:38:52.750Z,4.38
2023-03-21T17:41:20.232Z,3.70
2023-03-21T17:43:47.088Z,4.13
2023-03-21T17:46:15.350Z,4.57
2023-03-21T17:48:42.667Z,3.93
2023-03-21T17:51:12.894Z,3.60
2023-03-21T17:53:39.338Z,4.72
2023-03-21T17:56:06.750Z,4.13
2023-03-21T17:58:33.191Z,3.85
2023-03-21T18:00:59.745Z,3.80
2023-03-21T18:03:26.157Z,3.80
2023-03-21T18:05:52.680Z,3.72
2023-03-21T18:08:19.111Z,3.28
2023-03-21T18:10:46.325Z,3.83
2023-03-21T18:13:13.513Z,3.93
2023-03-21T18:15:44.121Z,3.83
2023-03-21T18:18:11.926Z,3.65
2023-03-21T18:20:54.828Z,3.15
2023-03-21T18:23:24.072Z,3.55
2023-03-21T18:25:52.415Z,3.60
2023-03-21T18:28:21.285Z,3.60
2023-03-21T18:33:40.113Z,3.00
2023-03-21T18:36:08.197Z,3.33
2023-03-21T18:38:35.637Z,3.30
2023-03-21T18:41:02.065Z,3.47
2023-03-21T18:46:15.832Z,3.22
2023-03-21T18:48:42.718Z,4.15
2023-03-21T18:51:10.081Z,3.87
2023-03-21T18:53:36.490Z,4.43
2023-03-21T18:56:03.191Z,4.32
2023-03-21T18:58:29.684Z,3.97
2023-03-21T19:00:59.485Z,4.60
2023-03-21T19:03:35.750Z,4.30
2023-03-21T19:06:04.696Z,4.55
2023-03-21T19:08:31.902Z,4.75
2023-03-21T19:11:03.366Z,4.47
2023-03-21T19:13:32.947Z,4.38
2023-03-21T19:16:02.446Z,4.30
2023-03-21T19:18:50.055Z,4.70
2023-03-21T19:21:18.689Z,4.20
2023-03-21T19:24:20.822Z,5.57
2023-03-21T19:26:32.125Z,4.47
2023-03-21T19:28:58.481Z,4.70
2023-03-21T19:31:25.067Z,4.55
2023-03-21T19:33:51.747Z,5.22
2023-03-21T19:36:22.543Z,4.60
2023-03-21T19:38:49.865Z,5.38
2023-03-21T19:41:16.799Z,5.00
2023-03-21T19:43:53.248Z,4.53
2023-03-21T19:46:24.466Z,5.28
2023-03-21T19:48:50.944Z,5.82
2023-03-21T19:51:33.154Z,5.30
2023-03-21T19:54:03.147Z,5.37
2023-03-21T19:56:31.492Z,5.63
2023-03-21T19:58:58.516Z,6.30
2023-03-21T20:01:25.515Z,5.95
2023-03-21T20:03:52.214Z,5.60
2023-03-21T20:06:19.583Z,5.17
2023-03-21T20:11:33.385Z,5.28
2023-03-21T20:14:01.913Z,5.50
2023-03-21T20:16:34.958Z,5.53
2023-03-21T20:19:05.902Z,5.23
2023-03-21T20:21:44.455Z,5.40
2023-03-21T20:24:16.394Z,5.05
2023-03-21T20:26:44.953Z,5.80
2023-03-21T20:30:03.818Z,4.80
2023-03-21T20:31:57.904Z,5.30
2023-03-21T20:34:24.373Z,5.72
2023-03-21T20:36:50.815Z,5.68
2023-03-21T20:39:17.761Z,5.57
2023-03-21T20:41:44.155Z,6.25
2023-03-21T20:46:57.236Z,6.50
2023-03-21T20:49:24.355Z,5.63
2023-03-21T20:52:49.391Z,5.03
2023-03-21T20:54:37.773Z,6.05
2023-03-21T20:57:04.966Z,5.57
2023-03-21T20:59:31.371Z,5.80
2023-03-21T21:01:58.500Z,4.90
2023-03-21T21:04:46.902Z,4.38
2023-03-21T21:07:17.267Z,4.75
2023-03-21T21:09:44.756Z,3.90
2023-03-21T21:12:12.345Z,4.20
2023-03-21T21:14:39.064Z,3.90
2023-03-21T21:17:23.907Z,3.40
2023-03-21T21:19:52.437Z,3.38
2023-03-21T21:22:18.946Z,3.57
2023-03-21T21:24:45.313Z,3.72
2023-03-21T21:27:11.968Z,3.10
2023-03-21T21:29:38.513Z,2.88
2023-03-21T21:32:05.296Z,3.05
2023-03-21T21:34:32.232Z,3.00
2023-03-21T21:36:58.744Z,3.60
2023-03-21T21:39:26.454Z,2.72
2023-03-21T21:41:53.666Z,3.13
2023-03-21T21:44:20.422Z,3.35
2023-03-21T21:46:47.120Z,3.47
2023-03-21T21:49:13.604Z,3.72
2023-03-21T21:51:41.827Z,3.92
2023-03-21T21:54:08.275Z,4.65
2023-03-21T21:56:36.938Z,4.40
2023-03-21T21:59:04.371Z,4.40
2023-03-21T22:01:34.603Z,4.38
2023-03-21T22:04:08.200Z,3.85
2023-03-21T22:06:34.961Z,3.50
2023-03-21T22:09:04.158Z,3.92
2023-03-21T22:11:30.761Z,2.60
2023-03-21T22:13:57.256Z,2.83
2023-03-21T22:16:23.922Z,2.85
2023-03-21T22:18:50.429Z,2.65
2023-03-21T22:21:16.913Z,3.05
2023-03-21T22:23:43.363Z,2.13
2023-03-21T22:26:10.565Z,2.45
2023-03-21T22:28:40.539Z,2.58
2023-03-21T22:31:15.483Z,1.85
2023-03-21T22:33:42.903Z,1.67
2023-03-21T22:36:09.610Z,1.53
2023-03-21T22:38:36.950Z,1.40
2023-03-21T22:41:05.659Z,1.58
2023-03-21T22:43:34.181Z,1.67
2023-03-21T22:46:01.944Z,1.50
2023-03-21T22:48:31.452Z,1.40
2023-03-21T22:50:59.407Z,0.90
2023-03-21T22:53:26.181Z,1.35
2023-03-21T22:55:53.086Z,0.90
2023-03-21T22:58:19.548Z,1.35
2023-03-21T23:00:47.113Z,1.00
2023-03-21T23:03:14.822Z,0.68
2023-03-21T23:05:41.517Z,1.13
2023-03-21T23:08:08.571Z,0.60
2023-03-21T23:10:38.322Z,1.25
2023-03-21T23:13:05.965Z,1.10
2023-03-21T23:15:32.659Z,0.90
2023-03-21T23:17:59.065Z,1.02
2023-03-21T23:20:25.496Z,0.65
2023-03-21T23:22:51.932Z,0.98
2023-03-21T23:25:20.454Z,0.90
2023-03-21T23:27:47.213Z,0.82
2023-03-21T23:30:13.787Z,0.50
2023-03-21T23:32:40.356Z,0.60
2023-03-21T23:35:07.491Z,0.43
2023-03-21T23:37:33.922Z,1.13
2023-03-21T23:40:00.449Z,0.50
2023-03-21T23:42:29.158Z,0.60
2023-03-21T23:44:55.615Z,0.50
2023-03-21T23:47:22.042Z,0.60
2023-03-21T23:49:49.934Z,0.33
2023-03-21T23:52:16.424Z,0.60
2023-03-21T23:54:43.340Z,0.63
2023-03-21T23:57:10.216Z,0.65
2023-03-21T23:59:36.654Z,0.75
